createdAt,value
2023-04-04T00:01:18.638Z,18.10
2023-04-04T00:03:51.643Z,16.67
2023-04-04T00:06:20.257Z,18.10
2023-04-04T00:08:49.256Z,18.27
2023-04-04T00:11:17.780Z,17.07
2023-04-04T00:13:47.950Z,18.30
2023-04-04T00:16:16.424Z,19.47
2023-04-04T00:18:45.119Z,11.73
2023-04-04T00:21:13.529Z,15.70
2023-04-04T00:23:42.575Z,15.83
2023-04-04T00:26:11.045Z,16.57
2023-04-04T00:28:40.580Z,15.03
2023-04-04T00:31:10.659Z,16.90
2023-04-04T00:33:39.409Z,16.40
2023-04-04T00:36:08.922Z,16.80
2023-04-04T00:38:37.899Z,19.07
2023-04-04T00:41:07.552Z,14.83
2023-04-04T00:43:37.803Z,19.73
2023-04-04T00:46:06.400Z,15.67
2023-04-04T00:48:37.220Z,17.93
2023-04-04T00:51:06.000Z,18.87
2023-04-04T00:53:34.878Z,16.83
2023-04-04T00:56:03.667Z,14.37
2023-04-04T00:58:32.488Z,18.67
2023-04-04T01:01:01.735Z,16.43
2023-04-04T01:03:30.904Z,17.33
2023-04-04T01:06:02.053Z,13.60
2023-04-04T01:08:32.381Z,20.67
2023-04-04T01:11:01.473Z,15.53
2023-04-04T01:13:32.316Z,11.43
2023-04-04T01:16:01.571Z,17.77
2023-04-04T01:18:32.471Z,15.43
2023-04-04T01:21:04.866Z,16.67
2023-04-04T01:23:41.809Z,19.00
2023-04-04T01:26:12.410Z,12.20
2023-04-04T01:28:41.341Z,16.90
2023-04-04T01:31:15.691Z,19.23
2023-04-04T01:33:49.588Z,17.20
2023-04-04T01:36:24.038Z,20.13
2023-04-04T01:39:11.181Z,13.63
2023-04-04T01:41:41.777Z,18.07
2023-04-04T01:44:11.560Z,18.03
2023-04-04T01:46:40.281Z,18.03
2023-04-04T01:49:11.093Z,17.27
2023-04-04T01:51:41.320Z,21.17
2023-04-04T01:54:10.794Z,18.33
2023-04-04T01:56:40.593Z,19.83
2023-04-04T01:59:09.676Z,17.90
2023-04-04T02:01:38.698Z,17.70
2023-04-04T02:04:08.752Z,19.07
2023-04-04T02:06:37.234Z,19.77
2023-04-04T02:09:07.504Z,15.20
2023-04-04T02:11:36.551Z,20.27
2023-04-04T02:14:07.233Z,17.17
2023-04-04T02:16:35.639Z,14.57
2023-04-04T02:19:04.701Z,15.87
2023-04-04T02:21:37.337Z,15.50
2023-04-04T02:24:07.041Z,12.27
2023-04-04T02:26:35.555Z,17.80
2023-04-04T02:29:04.269Z,14.60
2023-04-04T02:31:34.067Z,18.57
2023-04-04T02:34:03.142Z,19.30
2023-04-04T02:36:32.400Z,11.23
2023-04-04T02:39:02.431Z,18.43
2023-04-04T02:41:32.267Z,15.83
2023-04-04T02:44:01.197Z,14.13
2023-04-04T02:46:29.672Z,15.47
2023-04-04T02:49:05.976Z,17.73
2023-04-04T02:51:35.658Z,15.00
2023-04-04T02:54:05.344Z,16.30
2023-04-04T02:56:40.030Z,16.50
2023-04-04T02:59:08.843Z,15.03
2023-04-04T03:01:37.443Z,14.57
2023-04-04T03:04:08.114Z,16.27
2023-04-04T03:06:37.648Z,15.80
2023-04-04T03:09:06.700Z,15.27
2023-04-04T03:11:35.298Z,21.33
2023-04-04T03:14:04.256Z,18.97
2023-04-04T03:16:38.824Z,13.10
2023-04-04T03:19:09.973Z,13.53
2023-04-04T03:21:40.323Z,14.57
2023-04-04T03:24:09.304Z,14.07
2023-04-04T03:26:37.912Z,18.10
2023-04-04T03:29:07.232Z,14.07
2023-04-04T03:31:35.748Z,14.23
2023-04-04T03:34:04.579Z,20.93
2023-04-04T03:36:34.452Z,10.67
2023-04-04T03:39:03.211Z,17.60
2023-04-04T03:41:31.626Z,14.97
2023-04-04T03:44:00.557Z,15.10
2023-04-04T03:46:29.099Z,13.03
2023-04-04T03:48:58.155Z,16.77
2023-04-04T03:51:27.408Z,14.93
2023-04-04T03:53:57.828Z,13.50
2023-04-04T03:56:26.384Z,13.50
2023-04-04T03:58:56.567Z,17.53
2023-04-04T04:01:25.178Z,16.87
2023-04-04T04:03:53.930Z,16.13
2023-04-04T04:06:22.750Z,24.50
2023-04-04T04:08:52.011Z,13.80
2023-04-04T04:11:22.219Z,16.80
2023-04-04T04:13:50.968Z,20.80
2023-04-04T04:16:20.053Z,12.77
2023-04-04T04:18:50.066Z,14.03
2023-04-04T04:21:26.940Z,18.03
2023-04-04T04:23:55.680Z,16.27
2023-04-04T04:26:26.249Z,20.23
2023-04-04T04:28:55.858Z,14.73
2023-04-04T04:31:30.587Z,16.93
2023-04-04T04:34:00.686Z,13.50
2023-04-04T04:36:32.578Z,17.23
2023-04-04T04:39:13.390Z,14.30
2023-04-04T04:41:52.180Z,15.33
2023-04-04T04:44:21.407Z,15.80
2023-04-04T04:46:49.903Z,16.17
2023-04-04T04:49:20.211Z,16.03
2023-04-04T04:51:49.720Z,15.27
2023-04-04T04:54:19.747Z,28.47
2023-04-04T04:56:52.864Z,16.13
2023-04-04T04:59:22.646Z,16.67
2023-04-04T05:01:51.449Z,16.33
2023-04-04T05:04:21.176Z,14.63
2023-04-04T05:07:00.840Z,16.80
2023-04-04T05:09:30.076Z,16.03
2023-04-04T05:12:00.189Z,13.13
2023-04-04T05:14:38.708Z,18.00
2023-04-04T05:17:07.577Z,20.20
2023-04-04T05:19:37.412Z,13.63
2023-04-04T05:22:07.399Z,14.47
2023-04-04T05:24:43.892Z,15.30
2023-04-04T05:27:17.424Z,11.97
2023-04-04T05:29:50.272Z,17.67
2023-04-04T05:32:19.553Z,15.53
2023-04-04T05:34:55.705Z,14.03
2023-04-04T05:37:23.967Z,21.50
2023-04-04T05:39:53.458Z,12.83
2023-04-04T05:42:23.326Z,13.73
2023-04-04T05:44:55.358Z,16.70
2023-04-04T05:47:24.616Z,16.47
2023-04-04T05:49:53.334Z,17.53
2023-04-04T05:52:22.043Z,15.47
2023-04-04T05:54:52.258Z,15.73
2023-04-04T05:57:29.705Z,14.30
2023-04-04T06:00:00.248Z,16.43
2023-04-04T06:02:29.797Z,16.57
2023-04-04T06:05:03.579Z,19.23
2023-04-04T06:07:37.628Z,11.47
2023-04-04T06:10:07.860Z,14.23
2023-04-04T06:12:39.156Z,20.43
2023-04-04T06:15:11.766Z,14.57
2023-04-04T06:17:41.417Z,18.80
2023-04-04T06:20:11.378Z,17.43
2023-04-04T06:22:39.925Z,19.80
2023-04-04T06:25:11.526Z,23.47
2023-04-04T06:27:42.519Z,17.60
2023-04-04T06:30:14.442Z,17.10
2023-04-04T06:32:43.765Z,22.60
2023-04-04T06:35:18.810Z,19.10
2023-04-04T06:37:56.729Z,17.60
2023-04-04T06:40:27.140Z,17.63
2023-04-04T06:42:58.366Z,17.37
2023-04-04T06:45:35.849Z,12.77
2023-04-04T06:48:04.171Z,16.50
2023-04-04T06:50:36.576Z,17.07
2023-04-04T06:53:07.601Z,18.33
2023-04-04T06:55:37.028Z,21.03
2023-04-04T06:58:06.715Z,18.70
2023-04-04T07:00:36.152Z,18.87
2023-04-04T07:03:04.624Z,20.47
2023-04-04T07:05:33.611Z,13.47
2023-04-04T07:08:01.822Z,14.00
2023-04-04T07:10:30.839Z,18.23
2023-04-04T07:12:59.099Z,12.63
2023-04-04T07:15:29.489Z,10.97
2023-04-04T07:17:57.942Z,13.63
2023-04-04T07:20:28.348Z,15.40
2023-04-04T07:22:56.640Z,13.27
2023-04-04T07:25:25.292Z,19.07
2023-04-04T07:28:02.309Z,14.13
2023-04-04T07:30:40.366Z,17.10
2023-04-04T07:33:09.097Z,14.23
2023-04-04T07:35:38.077Z,16.93
2023-04-04T07:38:06.757Z,19.23
2023-04-04T07:40:35.638Z,15.27
2023-04-04T07:43:03.995Z,19.93
2023-04-04T07:45:32.557Z,11.37
2023-04-04T07:48:02.303Z,17.27
2023-04-04T07:50:31.250Z,10.83
2023-04-04T07:52:59.523Z,13.47
2023-04-04T07:55:28.943Z,12.77
2023-04-04T07:57:58.446Z,15.03
2023-04-04T08:00:27.128Z,17.63
2023-04-04T08:02:56.322Z,16.93
2023-04-04T08:05:26.704Z,14.03
2023-04-04T08:07:54.910Z,15.97
2023-04-04T08:10:23.625Z,14.47
2023-04-04T08:12:53.131Z,20.07
2023-04-04T08:15:21.943Z,12.60
2023-04-04T08:17:50.241Z,12.27
2023-04-04T08:20:18.879Z,18.47
2023-04-04T08:22:48.443Z,12.93
2023-04-04T08:25:17.566Z,14.13
2023-04-04T08:27:45.802Z,18.10
2023-04-04T08:30:15.445Z,16.50
2023-04-04T08:32:45.753Z,15.07
2023-04-04T08:35:14.764Z,17.53
2023-04-04T08:37:46.049Z,21.43
2023-04-04T08:40:17.086Z,15.27
2023-04-04T08:42:46.298Z,19.23
2023-04-04T08:45:19.098Z,13.30
2023-04-04T08:47:51.362Z,18.57
2023-04-04T08:50:21.479Z,14.20
2023-04-04T08:52:50.592Z,12.23
2023-04-04T08:55:21.255Z,12.93
2023-04-04T08:57:49.822Z,16.70
2023-04-04T09:00:21.493Z,12.07
2023-04-04T09:02:57.842Z,11.10
2023-04-04T09:05:27.444Z,16.37
2023-04-04T09:07:56.638Z,16.87
2023-04-04T09:10:27.955Z,14.23
2023-04-04T09:13:05.154Z,14.97
2023-04-04T09:15:43.978Z,16.47
2023-04-04T09:18:12.134Z,14.07
2023-04-04T09:20:42.565Z,13.97
2023-04-04T09:23:13.211Z,11.97
2023-04-04T09:28:22.046Z,18.87
2023-04-04T09:30:51.537Z,12.80
2023-04-04T09:33:21.615Z,17.63
2023-04-04T09:35:53.434Z,12.57
2023-04-04T09:38:23.217Z,15.27
2023-04-04T09:40:54.077Z,15.30
2023-04-04T09:43:24.173Z,16.07
2023-04-04T09:45:55.699Z,11.47
2023-04-04T09:48:27.684Z,15.97
2023-04-04T09:50:59.754Z,14.67
2023-04-04T09:53:28.854Z,11.37
2023-04-04T09:55:59.083Z,9.73
2023-04-04T09:58:28.611Z,13.23
2023-04-04T10:01:00.824Z,11.40
2023-04-04T10:03:31.190Z,15.43
2023-04-04T10:06:01.335Z,12.83
2023-04-04T10:08:31.157Z,14.97
2023-04-04T10:11:11.200Z,8.43
2023-04-04T10:13:43.938Z,7.90
2023-04-04T10:16:13.555Z,18.30
2023-04-04T10:18:42.184Z,16.53
2023-04-04T10:23:45.523Z,15.77
2023-04-04T10:26:16.084Z,14.00
2023-04-04T10:28:45.432Z,15.87
2023-04-04T10:31:21.417Z,14.03
2023-04-04T10:34:01.803Z,12.23
2023-04-04T10:36:36.733Z,18.53
2023-04-04T10:39:14.890Z,13.53
2023-04-04T10:41:47.353Z,11.20
2023-04-04T10:44:24.652Z,8.60
2023-04-04T10:46:56.817Z,10.90
2023-04-04T10:49:26.181Z,14.37
2023-04-04T10:51:57.563Z,10.77
2023-04-04T10:54:29.158Z,11.00
2023-04-04T10:57:01.541Z,13.03
2023-04-04T10:59:30.118Z,11.83
2023-04-04T11:02:01.123Z,18.67
2023-04-04T11:04:34.761Z,17.83
2023-04-04T11:07:14.990Z,18.33
2023-04-04T11:09:51.245Z,14.13
2023-04-04T11:12:28.923Z,12.67
2023-04-04T11:15:09.882Z,11.50
2023-04-04T11:17:52.914Z,12.90
2023-04-04T11:20:23.739Z,16.20
2023-04-04T11:23:03.481Z,18.30
2023-04-04T11:25:42.632Z,21.33
2023-04-04T11:28:16.803Z,21.13
2023-04-04T11:30:51.316Z,19.57
2023-04-04T11:33:31.808Z,14.97
2023-04-04T11:36:08.214Z,14.73
2023-04-04T11:38:41.046Z,21.73
2023-04-04T11:41:10.693Z,13.17
2023-04-04T11:43:47.789Z,14.10
2023-04-04T11:46:19.685Z,21.83
2023-04-04T11:48:49.420Z,17.43
2023-04-04T11:51:19.654Z,17.97
2023-04-04T11:53:49.132Z,20.10
2023-04-04T11:56:17.622Z,19.00
2023-04-04T11:58:56.068Z,15.53
2023-04-04T12:01:30.436Z,18.17
2023-04-04T12:04:01.383Z,13.27
2023-04-04T12:06:33.101Z,13.67
2023-04-04T12:09:03.743Z,14.03
2023-04-04T12:11:34.555Z,19.23
2023-04-04T12:14:05.024Z,16.13
2023-04-04T12:16:33.532Z,12.87
2023-04-04T12:19:03.181Z,12.03
2023-04-04T12:21:33.680Z,20.47
2023-04-04T12:24:02.598Z,16.03
2023-04-04T12:26:32.831Z,13.90
2023-04-04T12:29:02.334Z,17.50
2023-04-04T12:31:32.348Z,14.17
2023-04-04T12:34:01.684Z,16.67
2023-04-04T12:36:31.470Z,17.20
2023-04-04T12:39:02.201Z,16.87
2023-04-04T12:41:30.709Z,10.80
2023-04-04T12:44:03.654Z,13.13
2023-04-04T12:46:39.973Z,14.60
2023-04-04T12:49:11.673Z,17.03
2023-04-04T12:51:40.216Z,15.33
2023-04-04T12:54:09.239Z,12.03
2023-04-04T12:56:37.867Z,16.13
2023-04-04T12:59:10.935Z,14.90
2023-04-04T13:01:41.874Z,15.93
2023-04-04T13:04:11.001Z,11.10
2023-04-04T13:06:39.666Z,11.53
2023-04-04T13:09:16.977Z,17.00
2023-04-04T13:11:58.823Z,15.50
2023-04-04T13:14:28.279Z,15.37
2023-04-04T13:17:06.077Z,11.93
2023-04-04T13:19:34.965Z,19.33
2023-04-04T13:22:04.305Z,19.63
2023-04-04T13:24:32.975Z,13.83
2023-04-04T13:27:01.884Z,13.03
2023-04-04T13:29:30.662Z,13.37
2023-04-04T13:31:59.124Z,15.20
2023-04-04T13:34:29.268Z,15.83
2023-04-04T13:36:57.902Z,11.03
2023-04-04T13:39:26.731Z,13.03
2023-04-04T13:41:55.120Z,19.00
2023-04-04T13:44:26.057Z,11.53
2023-04-04T13:46:55.901Z,17.40
2023-04-04T13:49:24.904Z,12.20
2023-04-04T13:51:54.610Z,9.77
2023-04-04T13:54:23.226Z,15.30
2023-04-04T13:56:52.589Z,15.70
2023-04-04T13:59:23.231Z,11.73
2023-04-04T14:01:51.792Z,14.73
2023-04-04T14:04:24.201Z,14.50
2023-04-04T14:06:54.196Z,15.53
2023-04-04T14:09:22.874Z,10.30
2023-04-04T14:11:51.249Z,13.13
2023-04-04T14:14:19.797Z,14.20
2023-04-04T14:16:48.446Z,11.47
2023-04-04T14:19:17.205Z,11.90
2023-04-04T14:21:45.528Z,10.17
2023-04-04T14:24:15.376Z,12.40
2023-04-04T14:26:43.665Z,10.93
2023-04-04T14:29:12.124Z,14.00
2023-04-04T14:31:40.779Z,10.87
2023-04-04T14:34:09.262Z,10.77
2023-04-04T14:36:37.717Z,13.87
2023-04-04T14:39:06.238Z,20.73
2023-04-04T14:41:35.712Z,12.30
2023-04-04T14:44:04.341Z,13.53
2023-04-04T14:46:34.005Z,12.43
2023-04-04T14:49:05.729Z,15.93
2023-04-04T14:51:34.489Z,13.50
2023-04-04T14:54:03.069Z,11.00
2023-04-04T14:56:31.613Z,15.97
2023-04-04T14:59:02.881Z,11.13
2023-04-04T15:01:31.084Z,11.10
2023-04-04T15:03:59.793Z,12.27
2023-04-04T15:06:28.034Z,13.03
2023-04-04T15:08:57.467Z,15.70
2023-04-04T15:11:27.835Z,13.07
2023-04-04T15:13:56.386Z,14.33
2023-04-04T15:16:26.237Z,13.90
2023-04-04T15:18:55.036Z,15.37
2023-04-04T15:21:23.352Z,14.50
2023-04-04T15:23:51.916Z,19.27
2023-04-04T15:26:20.109Z,10.23
2023-04-04T15:28:49.320Z,14.83
2023-04-04T15:31:17.927Z,14.10
2023-04-04T15:33:48.556Z,20.47
2023-04-04T15:36:17.476Z,15.77
2023-04-04T15:38:46.244Z,12.03
2023-04-04T15:41:14.559Z,11.33
2023-04-04T15:43:43.104Z,13.60
2023-04-04T15:46:11.599Z,13.47
2023-04-04T15:48:40.191Z,15.03
2023-04-04T15:51:10.149Z,12.13
2023-04-04T15:53:38.755Z,16.50
2023-04-04T15:56:07.285Z,13.23
2023-04-04T15:58:35.997Z,13.13
2023-04-04T16:01:04.277Z,13.80
2023-04-04T16:03:33.024Z,11.73
2023-04-04T16:06:01.615Z,14.53
2023-04-04T16:08:31.945Z,11.90
2023-04-04T16:11:02.572Z,13.33
2023-04-04T16:13:31.349Z,9.30
2023-04-04T16:15:59.559Z,14.33
2023-04-04T16:18:28.155Z,12.07
2023-04-04T16:20:56.701Z,11.47
2023-04-04T16:23:25.395Z,15.23
2023-04-04T16:25:55.935Z,11.67
2023-04-04T16:28:24.339Z,12.90
2023-04-04T16:30:52.775Z,13.70
2023-04-04T16:33:24.067Z,9.50
2023-04-04T16:35:52.369Z,11.87
2023-04-04T16:38:20.921Z,13.87
2023-04-04T16:40:49.136Z,12.50
2023-04-04T16:43:19.395Z,8.33
2023-04-04T16:45:47.729Z,10.63
2023-04-04T16:48:16.350Z,13.17
2023-04-04T16:50:44.700Z,11.07
2023-04-04T16:53:13.167Z,15.43
2023-04-04T16:55:41.364Z,10.20
2023-04-04T16:58:10.123Z,8.80
2023-04-04T17:00:40.249Z,12.93
2023-04-04T17:03:09.272Z,16.50
2023-04-04T17:05:37.511Z,10.70
2023-04-04T17:08:06.155Z,13.10
2023-04-04T17:10:36.172Z,15.03
2023-04-04T17:13:06.433Z,12.53
2023-04-04T17:15:34.706Z,10.13
2023-04-04T17:18:05.622Z,14.70
2023-04-04T17:20:34.581Z,11.67
2023-04-04T17:23:03.464Z,9.87
2023-04-04T17:25:32.024Z,13.60
2023-04-04T17:28:00.992Z,14.33
2023-04-04T17:30:29.301Z,14.30
2023-04-04T17:32:58.088Z,12.30
2023-04-04T17:35:27.853Z,15.20
2023-04-04T17:37:56.692Z,18.10
2023-04-04T17:40:24.905Z,11.37
2023-04-04T17:42:53.527Z,13.97
2023-04-04T17:45:21.981Z,8.47
2023-04-04T17:47:50.449Z,16.90
2023-04-04T17:50:18.756Z,12.60
2023-04-04T17:52:48.779Z,22.23
2023-04-04T17:55:18.047Z,15.70
2023-04-04T17:57:46.883Z,13.77
2023-04-04T18:00:16.474Z,13.37
2023-04-04T18:02:45.605Z,14.73
2023-04-04T18:05:14.800Z,14.23
2023-04-04T18:07:43.474Z,9.50
2023-04-04T18:10:13.210Z,16.43
2023-04-04T18:12:42.570Z,16.80
2023-04-04T18:15:12.327Z,11.53
2023-04-04T18:17:42.830Z,11.23
2023-04-04T18:20:14.413Z,10.83
2023-04-04T18:22:48.343Z,9.77
2023-04-04T18:25:18.824Z,11.47
2023-04-04T18:27:47.593Z,15.57
2023-04-04T18:30:16.115Z,14.67
2023-04-04T18:32:44.768Z,14.27
2023-04-04T18:35:14.725Z,13.67
2023-04-04T18:37:43.386Z,23.50
2023-04-04T18:40:12.298Z,18.63
2023-04-04T18:42:42.241Z,21.87
2023-04-04T18:45:11.722Z,24.87
2023-04-04T18:47:41.262Z,19.33
2023-04-04T18:50:10.197Z,27.53
2023-04-04T18:52:38.931Z,23.20
2023-04-04T18:55:08.078Z,18.30
2023-04-04T18:57:37.611Z,16.37
2023-04-04T19:00:09.769Z,20.03
2023-04-04T19:02:40.617Z,17.90
2023-04-04T19:05:15.001Z,17.20
2023-04-04T19:07:44.933Z,19.07
2023-04-04T19:10:13.247Z,18.83
2023-04-04T19:12:41.814Z,20.50
2023-04-04T19:15:11.878Z,17.43
2023-04-04T19:17:41.225Z,17.03
2023-04-04T19:20:10.635Z,18.60
2023-04-04T19:22:39.318Z,18.47
2023-04-04T19:25:08.695Z,22.10
2023-04-04T19:27:38.568Z,20.50
2023-04-04T19:30:33.508Z,21.27
2023-04-04T19:33:03.468Z,19.40
2023-04-04T19:35:53.325Z,18.50
2023-04-04T19:38:25.064Z,19.57
2023-04-04T19:41:00.658Z,20.33
2023-04-04T19:43:30.794Z,18.27
2023-04-04T19:46:06.261Z,20.60
2023-04-04T19:48:53.149Z,25.07
2023-04-04T19:51:42.731Z,18.20
2023-04-04T19:54:22.238Z,18.50
2023-04-04T19:56:51.358Z,15.77
2023-04-04T19:59:52.325Z,13.37
2023-04-04T20:06:01.223Z,15.90
2023-04-04T20:08:43.865Z,21.50
2023-04-04T20:11:12.988Z,24.03
2023-04-04T20:13:42.133Z,18.30
2023-04-04T20:16:12.580Z,23.93
2023-04-04T20:18:43.761Z,21.23
2023-04-04T20:21:16.044Z,28.17
2023-04-04T20:23:52.486Z,24.93
2023-04-04T20:26:51.380Z,18.80
2023-04-04T20:29:22.473Z,23.07
2023-04-04T20:31:52.476Z,21.03
2023-04-04T20:34:41.744Z,24.50
2023-04-04T20:37:14.480Z,23.47
2023-04-04T20:39:47.718Z,26.83
2023-04-04T20:42:20.380Z,26.63
2023-04-04T20:44:48.828Z,25.80
2023-04-04T20:47:43.660Z,22.40
2023-04-04T20:50:46.319Z,26.87
2023-04-04T20:53:27.481Z,27.00
2023-04-04T20:55:56.240Z,27.93
2023-04-04T20:58:29.391Z,23.40
2023-04-04T21:00:59.550Z,23.00
2023-04-04T21:03:41.427Z,25.00
2023-04-04T21:06:15.401Z,25.00
2023-04-04T21:08:47.771Z,24.97
2023-04-04T21:11:24.732Z,23.63
2023-04-04T21:13:53.071Z,25.60
2023-04-04T21:16:24.583Z,25.07
2023-04-04T21:18:58.103Z,25.87
2023-04-04T21:21:27.206Z,27.50
2023-04-04T21:23:58.232Z,34.80
2023-04-04T21:26:29.538Z,34.63
2023-04-04T21:28:58.410Z,24.90
2023-04-04T21:31:29.641Z,34.57
2023-04-04T21:34:02.411Z,27.10
2023-04-04T21:36:31.161Z,22.97
2023-04-04T21:39:02.357Z,32.23
2023-04-04T21:41:32.494Z,26.70
2023-04-04T21:44:01.995Z,30.50
2023-04-04T21:46:33.437Z,25.27
2023-04-04T21:49:02.347Z,25.73
2023-04-04T21:51:30.997Z,28.50
2023-04-04T21:54:01.176Z,25.17
2023-04-04T21:56:31.589Z,23.70
2023-04-04T21:59:00.319Z,22.03
2023-04-04T22:01:30.484Z,26.73
2023-04-04T22:03:59.064Z,20.80
2023-04-04T22:06:28.173Z,23.93
2023-04-04T22:08:58.136Z,22.30
2023-04-04T22:11:28.614Z,18.87
2023-04-04T22:14:04.318Z,24.57
2023-04-04T22:16:36.734Z,24.27
2023-04-04T22:19:05.624Z,28.63
2023-04-04T22:21:36.587Z,29.40
2023-04-04T22:24:06.713Z,24.47
2023-04-04T22:26:37.036Z,27.47
2023-04-04T22:29:08.499Z,24.47
2023-04-04T22:31:37.875Z,24.63
2023-04-04T22:34:06.631Z,24.27
2023-04-04T22:36:35.665Z,22.93
2023-04-04T22:39:04.129Z,25.27
2023-04-04T22:41:32.565Z,22.33
2023-04-04T22:44:02.375Z,27.37
2023-04-04T22:46:31.443Z,24.53
2023-04-04T22:49:06.479Z,26.13
2023-04-04T22:51:43.304Z,19.70
2023-04-04T22:54:14.408Z,20.43
2023-04-04T22:56:43.208Z,23.50
2023-04-04T22:59:13.041Z,20.43
2023-04-04T23:01:42.174Z,22.00
2023-04-04T23:04:10.751Z,24.10
2023-04-04T23:06:39.480Z,17.27
2023-04-04T23:09:08.572Z,21.90
2023-04-04T23:11:37.640Z,22.77
2023-04-04T23:14:08.877Z,19.27
2023-04-04T23:16:40.047Z,19.83
2023-04-04T23:19:08.507Z,21.00
2023-04-04T23:21:37.994Z,23.97
2023-04-04T23:24:07.530Z,20.53
2023-04-04T23:26:36.356Z,17.20
2023-04-04T23:29:05.661Z,23.90
2023-04-04T23:31:36.481Z,20.83
2023-04-04T23:34:06.334Z,22.70
2023-04-04T23:36:35.039Z,25.50
2023-04-04T23:39:03.662Z,18.13
2023-04-04T23:41:33.173Z,27.30
2023-04-04T23:44:01.830Z,24.60
2023-04-04T23:46:32.718Z,19.27
2023-04-04T23:49:01.809Z,21.13
2023-04-04T23:51:37.930Z,21.17
2023-04-04T23:54:07.003Z,22.00
2023-04-04T23:56:36.336Z,19.83
2023-04-04T23:59:05.860Z,19.30
